Time;durP1;ratioP1;P1;durP2;ratioP2;P2;SDS_P1;SDS_P2;PMS_P1;PMS_P2;Temp;Humidity;BMP_temperature;BMP_pressure;BME280_temperature;BME280_humidity;BME280_pressure;Samples;Min_cycle;Max_cycle;Signal;HPM_P1;HPM_P2
2021/06/15 00:00:38;;;;;;;24.70;18.13;;;;;;;;;;5031672;28;20022;-64
2021/06/15 00:03:04;;;;;;;28.90;18.27;;;;;;;;;;5032970;28;20025;-63
2021/06/15 00:05:30;;;;;;;29.65;19.55;;;;;;;;;;5032580;28;20104;-64
2021/06/15 00:07:56;;;;;;;30.23;20.27;;;;;;;;;;5032594;28;20117;-63
2021/06/15 00:10:23;;;;;;;29.70;19.25;;;;;;;;;;5032857;28;20060;-62
2021/06/15 00:12:50;;;;;;;27.15;19.00;;;;;;;;;;5032512;28;20056;-63
2021/06/15 00:15:16;;;;;;;26.77;18.15;;;;;;;;;;5031396;28;20029;-61
2021/06/15 00:17:43;;;;;;;29.98;19.45;;;;;;;;;;5034329;28;20485;-65
2021/06/15 00:20:09;;;;;;;29.33;18.52;;;;;;;;;;5032493;28;20040;-64
2021/06/15 00:22:35;;;;;;;33.35;19.35;;;;;;;;;;5033218;28;20457;-63
2021/06/15 00:25:01;;;;;;;26.85;18.08;;;;;;;;;;5033929;28;20030;-64
2021/06/15 00:27:29;;;;;;;30.02;18.55;;;;;;;;;;5032789;28;20455;-64
2021/06/15 00:29:55;;;;;;;27.92;18.10;;;;;;;;;;5034426;28;20036;-60
2021/06/15 00:32:21;;;;;;;28.38;18.33;;;;;;;;;;5033381;28;20034;-63
2021/06/15 00:34:47;;;;;;;25.85;17.63;;;;;;;;;;5033938;28;20025;-63
2021/06/15 00:37:13;;;;;;;30.13;18.42;;;;;;;;;;5034042;28;20029;-64
2021/06/15 00:39:39;;;;;;;25.52;17.83;;;;;;;;;;5033031;28;20042;-63
2021/06/15 00:42:06;;;;;;;26.85;16.73;;;;;;;;;;5033773;28;20037;-63
2021/06/15 00:44:36;;;;;;;24.27;17.15;;;;;;;;;;5033608;28;20048;-62
2021/06/15 00:47:03;;;;;;;30.33;18.15;;;;;;;;;;5033736;28;20108;-62
2021/06/15 00:49:32;;;;;;;24.38;17.15;;;;;;;;;;5032668;28;20049;-61
2021/06/15 00:51:58;;;;;;;27.63;18.73;;;;;;;;;;5034022;28;20440;-63
2021/06/15 00:54:24;;;;;;;32.25;17.08;;;;;;;;;;5033485;28;20068;-62
2021/06/15 00:56:51;;;;;;;29.35;17.67;;;;;;;;;;5032652;28;20041;-61
2021/06/15 00:59:17;;;;;;;28.10;16.30;;;;;;;;;;5033497;28;20440;-62
2021/06/15 01:01:43;;;;;;;26.23;17.42;;;;;;;;;;5033378;28;20034;-62
2021/06/15 01:04:09;;;;;;;31.63;17.67;;;;;;;;;;5033323;28;20030;-63
2021/06/15 01:06:42;;;;;;;26.80;16.60;;;;;;;;;;5032237;28;20032;-62
2021/06/15 01:09:14;;;;;;;25.50;15.70;;;;;;;;;;5033317;28;20058;-62
2021/06/15 01:11:40;;;;;;;26.00;16.77;;;;;;;;;;5031926;28;20025;-61
2021/06/15 01:14:20;;;;;;;26.95;17.65;;;;;;;;;;5033148;28;20025;-61
2021/06/15 01:16:50;;;;;;;26.52;17.17;;;;;;;;;;5032046;28;20026;-62
2021/06/15 01:19:34;;;;;;;27.50;16.85;;;;;;;;;;5031782;28;20028;-61
2021/06/15 01:22:03;;;;;;;29.70;16.67;;;;;;;;;;5032151;28;20061;-61
2021/06/15 01:24:32;;;;;;;27.67;15.63;;;;;;;;;;5031506;28;20029;-62
2021/06/15 01:27:01;;;;;;;25.08;15.68;;;;;;;;;;5032124;28;20496;-62
2021/06/15 01:29:34;;;;;;;28.05;15.63;;;;;;;;;;5031612;28;20048;-61
2021/06/15 01:32:07;;;;;;;29.48;16.08;;;;;;;;;;5032898;28;20501;-60
2021/06/15 01:34:38;;;;;;;24.67;15.13;;;;;;;;;;5031104;28;20434;-63
2021/06/15 01:37:13;;;;;;;24.92;15.20;;;;;;;;;;5031347;28;20025;-60
2021/06/15 01:39:43;;;;;;;26.38;14.77;;;;;;;;;;5032929;28;20667;-61
2021/06/15 01:42:09;;;;;;;23.90;15.10;;;;;;;;;;5032738;28;20022;-59
2021/06/15 01:44:36;;;;;;;25.38;15.60;;;;;;;;;;5032490;28;20047;-62
2021/06/15 01:47:07;;;;;;;22.92;15.43;;;;;;;;;;5031048;28;20482;-62
2021/06/15 01:49:53;;;;;;;27.13;14.73;;;;;;;;;;5032431;28;20484;-62
2021/06/15 01:52:23;;;;;;;25.92;15.95;;;;;;;;;;5032561;28;20519;-62
2021/06/15 01:54:49;;;;;;;26.42;14.93;;;;;;;;;;5032315;28;20479;-62
2021/06/15 01:57:18;;;;;;;25.77;15.38;;;;;;;;;;5032288;28;20029;-63
2021/06/15 01:59:45;;;;;;;26.25;16.23;;;;;;;;;;5032382;28;20025;-61
2021/06/15 02:02:12;;;;;;;27.38;16.20;;;;;;;;;;5032394;28;20050;-61
2021/06/15 02:04:41;;;;;;;26.95;13.50;;;;;;;;;;5032050;28;20033;-61
2021/06/15 02:07:08;;;;;;;24.83;16.25;;;;;;;;;;5030960;28;20040;-59
2021/06/15 02:09:37;;;;;;;27.58;16.17;;;;;;;;;;5031977;28;20083;-58
2021/06/15 02:12:03;;;;;;;;;;;;;;;;;;5032755;28;20056;-62
2021/06/15 02:14:29;;;;;;;29.10;15.80;;;;;;;;;;5030605;28;19960;-62
2021/06/15 02:16:58;;;;;;;25.02;15.60;;;;;;;;;;5030793;28;20022;-62
2021/06/15 02:19:24;;;;;;;25.90;15.45;;;;;;;;;;5032060;28;20048;-62
2021/06/15 02:21:56;;;;;;;25.52;16.00;;;;;;;;;;5030881;28;20032;-61
2021/06/15 02:24:24;;;;;;;28.92;16.98;;;;;;;;;;5031926;28;20389;-61
2021/06/15 02:26:51;;;;;;;30.98;17.80;;;;;;;;;;5031891;28;20030;-60
2021/06/15 02:29:17;;;;;;;31.65;17.13;;;;;;;;;;5032163;28;20038;-62
2021/06/15 02:31:49;;;;;;;26.60;16.67;;;;;;;;;;5030967;28;20427;-62
2021/06/15 02:34:18;;;;;;;28.33;16.92;;;;;;;;;;5030431;28;20159;-61
2021/06/15 02:36:46;;;;;;;27.63;16.17;;;;;;;;;;5032036;28;20477;-62
2021/06/15 02:39:14;;;;;;;26.88;15.77;;;;;;;;;;5032003;28;20022;-62
2021/06/15 02:41:41;;;;;;;28.10;16.40;;;;;;;;;;5032079;28;20220;-61
2021/06/15 02:44:08;;;;;;;25.25;16.67;;;;;;;;;;5031795;28;20393;-61
2021/06/15 02:46:35;;;;;;;27.02;17.88;;;;;;;;;;5031552;28;20566;-62
2021/06/15 02:49:02;;;;;;;28.52;17.35;;;;;;;;;;5031885;28;20486;-60
2021/06/15 02:51:33;;;;;;;29.55;17.35;;;;;;;;;;5031876;28;20505;-61
2021/06/15 02:54:04;;;;;;;31.40;18.40;;;;;;;;;;5030263;28;20034;-61
2021/06/15 02:56:31;;;;;;;27.52;18.73;;;;;;;;;;5031588;28;20061;-61
2021/06/15 02:58:57;;;;;;;28.45;17.58;;;;;;;;;;5031629;28;20021;-63
2021/06/15 03:01:23;;;;;;;26.45;17.15;;;;;;;;;;5030579;28;20603;-62
2021/06/15 03:03:49;;;;;;;25.92;16.83;;;;;;;;;;5030349;28;20025;-63
2021/06/15 03:06:15;;;;;;;29.25;17.42;;;;;;;;;;5029973;28;20083;-63
2021/06/15 03:08:41;;;;;;;33.38;19.33;;;;;;;;;;5031613;28;20060;-64
2021/06/15 03:11:07;;;;;;;28.98;17.50;;;;;;;;;;5031968;28;20041;-62
2021/06/15 03:13:38;;;;;;;28.40;17.42;;;;;;;;;;5031817;28;20029;-64
2021/06/15 03:16:06;;;;;;;31.02;18.17;;;;;;;;;;5031535;28;20030;-62
2021/06/15 03:18:41;;;;;;;30.20;18.10;;;;;;;;;;5031818;28;20029;-64
2021/06/15 03:21:12;;;;;;;29.00;17.80;;;;;;;;;;5032230;28;20093;-63
2021/06/15 03:23:47;;;;;;;28.38;18.60;;;;;;;;;;5033879;28;20132;-58
2021/06/15 03:26:15;;;;;;;27.95;17.00;;;;;;;;;;5035165;28;20030;-61
2021/06/15 03:28:42;;;;;;;26.63;17.45;;;;;;;;;;5033681;28;20025;-60
2021/06/15 03:31:08;;;;;;;30.00;17.15;;;;;;;;;;5033557;28;20034;-63
2021/06/15 03:33:35;;;;;;;27.27;17.70;;;;;;;;;;5034798;28;20076;-62
2021/06/15 03:36:03;;;;;;;27.65;17.73;;;;;;;;;;5033177;28;20025;-62
2021/06/15 03:38:31;;;;;;;29.15;17.00;;;;;;;;;;5034950;28;20026;-59
2021/06/15 03:40:58;;;;;;;26.45;17.33;;;;;;;;;;5035020;28;20025;-62
2021/06/15 03:43:24;;;;;;;28.13;17.40;;;;;;;;;;5033651;28;20025;-63
2021/06/15 03:45:55;;;;;;;29.02;18.83;;;;;;;;;;5032998;28;20021;-63
2021/06/15 03:48:22;;;;;;;30.42;18.23;;;;;;;;;;5033656;28;20128;-62
2021/06/15 03:50:49;;;;;;;29.00;18.05;;;;;;;;;;5034836;28;20021;-62
2021/06/15 03:53:17;;;;;;;28.95;15.77;;;;;;;;;;5034549;28;20021;-62
2021/06/15 03:55:43;;;;;;;28.75;18.83;;;;;;;;;;5034383;28;20021;-61
2021/06/15 03:58:10;;;;;;;27.63;16.83;;;;;;;;;;5034720;28;20025;-63
2021/06/15 04:00:37;;;;;;;33.28;17.85;;;;;;;;;;5034473;28;20203;-62
2021/06/15 04:03:05;;;;;;;32.40;17.55;;;;;;;;;;5034540;28;20022;-64
2021/06/15 04:05:32;;;;;;;26.73;16.88;;;;;;;;;;5032877;28;20519;-64
2021/06/15 04:08:00;;;;;;;31.02;17.95;;;;;;;;;;5033050;28;20033;-61
2021/06/15 04:10:27;;;;;;;30.95;18.45;;;;;;;;;;5034735;28;20022;-60
2021/06/15 04:12:55;;;;;;;29.45;17.60;;;;;;;;;;5034298;28;20022;-60
2021/06/15 04:15:22;;;;;;;29.48;17.67;;;;;;;;;;5034134;28;20037;-58
2021/06/15 04:17:49;;;;;;;26.90;18.00;;;;;;;;;;5034224;28;20062;-63
2021/06/15 04:20:19;;;;;;;27.00;16.83;;;;;;;;;;5034060;28;20032;-61
2021/06/15 04:22:46;;;;;;;26.25;17.73;;;;;;;;;;5032717;28;20026;-61
2021/06/15 04:25:14;;;;;;;29.90;17.35;;;;;;;;;;5032475;28;20029;-63
2021/06/15 04:27:41;;;;;;;29.70;18.23;;;;;;;;;;5033744;28;20401;-63
2021/06/15 04:30:07;;;;;;;27.15;17.67;;;;;;;;;;5032719;28;20405;-62
2021/06/15 04:32:52;;;;;;;27.15;17.52;;;;;;;;;;5033917;28;20029;-61
2021/06/15 04:35:23;;;;;;;27.17;17.00;;;;;;;;;;5033298;28;20033;-58
2021/06/15 04:37:50;;;;;;;27.83;16.45;;;;;;;;;;5032503;28;20021;-62
2021/06/15 04:40:19;;;;;;;26.85;17.15;;;;;;;;;;5033611;28;20029;-61
2021/06/15 04:42:54;;;;;;;28.35;16.60;;;;;;;;;;5033685;28;20030;-60
2021/06/15 04:45:22;;;;;;;27.88;17.60;;;;;;;;;;5033524;28;20079;-61
2021/06/15 04:47:52;;;;;;;29.05;17.60;;;;;;;;;;5034595;28;20037;-61
2021/06/15 04:50:26;;;;;;;30.67;18.42;;;;;;;;;;5033197;28;20030;-62
2021/06/15 04:52:52;;;;;;;33.55;18.40;;;;;;;;;;5033335;28;20116;-61
2021/06/15 04:55:21;;;;;;;33.58;19.63;;;;;;;;;;5031673;28;20113;-62
2021/06/15 04:57:48;;;;;;;30.77;18.58;;;;;;;;;;5032253;28;20125;-61
2021/06/15 05:00:14;;;;;;;32.33;19.25;;;;;;;;;;5032067;28;20022;-62
2021/06/15 05:02:41;;;;;;;30.88;19.90;;;;;;;;;;5031710;28;20095;-61
2021/06/15 05:05:10;;;;;;;32.50;20.77;;;;;;;;;;5031308;28;20560;-60
2021/06/15 05:07:36;;;;;;;29.38;19.00;;;;;;;;;;5031689;28;20086;-62
2021/06/15 05:10:04;;;;;;;30.30;19.80;;;;;;;;;;5031215;28;20030;-63
2021/06/15 05:12:38;;;;;;;28.92;18.48;;;;;;;;;;5032882;28;20025;-65
2021/06/15 05:15:09;;;;;;;26.52;18.00;;;;;;;;;;5032681;28;20033;-61
2021/06/15 05:17:35;;;;;;;28.25;18.50;;;;;;;;;;5032836;28;20068;-63
2021/06/15 05:20:01;;;;;;;30.88;20.20;;;;;;;;;;5032837;28;20108;-61
2021/06/15 05:22:56;;;;;;;30.52;19.80;;;;;;;;;;5032624;28;20026;-60
2021/06/15 05:25:23;;;;;;;31.60;20.23;;;;;;;;;;5023883;28;20112;-64
2021/06/15 05:27:49;;;;;;;27.90;19.33;;;;;;;;;;5031314;28;20021;-64
2021/06/15 05:30:15;;;;;;;29.85;19.67;;;;;;;;;;5031392;28;20477;-62
2021/06/15 05:32:41;;;;;;;30.90;19.52;;;;;;;;;;5031113;28;20504;-62
2021/06/15 05:35:08;;;;;;;30.30;19.42;;;;;;;;;;5030488;28;20025;-64
2021/06/15 05:37:34;;;;;;;27.33;19.55;;;;;;;;;;5032407;28;20026;-63
2021/06/15 05:40:00;;;;;;;30.85;20.00;;;;;;;;;;5032555;28;20043;-62
2021/06/15 05:42:26;;;;;;;31.05;19.80;;;;;;;;;;5030768;28;20032;-62
2021/06/15 05:44:52;;;;;;;31.52;20.23;;;;;;;;;;5031544;28;20033;-63
2021/06/15 05:47:18;;;;;;;30.63;19.23;;;;;;;;;;5039839;28;20040;-63
2021/06/15 05:49:44;;;;;;;28.05;19.20;;;;;;;;;;5051197;28;20032;-62
2021/06/15 05:52:11;;;;;;;31.63;21.13;;;;;;;;;;5033399;28;20036;-62
2021/06/15 05:54:38;;;;;;;28.63;17.90;;;;;;;;;;5035344;28;20029;-63
2021/06/15 05:57:05;;;;;;;28.45;18.15;;;;;;;;;;5049814;28;20110;-62
2021/06/15 05:59:31;;;;;;;27.48;18.48;;;;;;;;;;5052118;28;20389;-62
2021/06/15 06:01:57;;;;;;;30.52;18.88;;;;;;;;;;5051915;28;20126;-62
2021/06/15 06:08:04;;;;;;;27.98;18.30;;;;;;;;;;5037948;28;20053;-63
2021/06/15 06:10:02;;;;;;;32.63;19.67;;;;;;;;;;5003436;28;20037;-62
2021/06/15 06:12:28;;;;;;;30.98;18.15;;;;;;;;;;5031925;28;20104;-66
2021/06/15 06:14:54;;;;;;;33.03;20.05;;;;;;;;;;5031554;28;20109;-68
2021/06/15 06:17:20;;;;;;;28.70;17.88;;;;;;;;;;5031511;28;20525;-66
2021/06/15 06:19:47;;;;;;;27.63;18.50;;;;;;;;;;5030636;28;20068;-64
2021/06/15 06:22:15;;;;;;;27.40;18.95;;;;;;;;;;5050885;28;20096;-66
2021/06/15 06:24:41;;;;;;;29.77;20.70;;;;;;;;;;5049973;28;20021;-67
2021/06/15 06:27:07;;;;;;;32.08;20.17;;;;;;;;;;5051229;28;20481;-66
2021/06/15 06:29:33;;;;;;;27.63;20.02;;;;;;;;;;5051240;28;20017;-66
2021/06/15 06:31:59;;;;;;;28.67;19.27;;;;;;;;;;5051293;28;20094;-67
2021/06/15 06:34:25;;;;;;;29.48;18.90;;;;;;;;;;5051346;28;20032;-66
2021/06/15 06:36:51;;;;;;;28.00;20.08;;;;;;;;;;5050305;28;20508;-67
2021/06/15 06:39:17;;;;;;;27.85;19.98;;;;;;;;;;5051568;28;20086;-66
2021/06/15 06:41:43;;;;;;;29.95;20.00;;;;;;;;;;5051423;28;20655;-66
2021/06/15 06:44:09;;;;;;;31.75;20.23;;;;;;;;;;5049470;28;20127;-65
2021/06/15 06:46:35;;;;;;;30.40;20.23;;;;;;;;;;5045182;28;20108;-66
2021/06/15 06:49:02;;;;;;;32.58;21.02;;;;;;;;;;5031479;28;20104;-67
2021/06/15 06:51:28;;;;;;;32.53;20.35;;;;;;;;;;5031560;28;20036;-67
2021/06/15 06:53:54;;;;;;;28.45;19.33;;;;;;;;;;5031289;28;20112;-64
2021/06/15 06:56:20;;;;;;;27.92;19.13;;;;;;;;;;5034379;28;20030;-66
2021/06/15 06:58:47;;;;;;;33.40;18.27;;;;;;;;;;5034713;28;20033;-66
2021/06/15 07:01:13;;;;;;;29.38;19.95;;;;;;;;;;5035024;28;20025;-66
2021/06/15 07:03:39;;;;;;;30.60;19.45;;;;;;;;;;5035175;28;20032;-66
2021/06/15 07:06:05;;;;;;;27.92;19.20;;;;;;;;;;5033384;28;20030;-65
2021/06/15 07:08:31;;;;;;;31.13;19.65;;;;;;;;;;5033561;28;20026;-66
2021/06/15 07:10:57;;;;;;;26.45;19.40;;;;;;;;;;5033683;28;20489;-65
2021/06/15 07:13:23;;;;;;;28.45;18.80;;;;;;;;;;5033225;28;20068;-66
2021/06/15 07:15:50;;;;;;;25.35;17.27;;;;;;;;;;5034575;28;20049;-66
2021/06/15 07:18:16;;;;;;;25.92;18.08;;;;;;;;;;5034373;28;20017;-65
2021/06/15 07:20:42;;;;;;;27.48;17.75;;;;;;;;;;5034666;28;20151;-66
2021/06/15 07:23:08;;;;;;;30.30;18.30;;;;;;;;;;5034685;28;20022;-66
2021/06/15 07:25:34;;;;;;;25.60;16.85;;;;;;;;;;5049079;28;20040;-66
2021/06/15 07:28:01;;;;;;;25.65;17.67;;;;;;;;;;5034549;28;20104;-66
2021/06/15 07:30:27;;;;;;;25.65;16.38;;;;;;;;;;5034809;28;20105;-66
2021/06/15 07:32:57;;;;;;;28.30;16.60;;;;;;;;;;5034796;28;20026;-66
2021/06/15 07:35:23;;;;;;;26.65;17.52;;;;;;;;;;5034200;28;20022;-66
2021/06/15 07:37:49;;;;;;;24.15;15.70;;;;;;;;;;5034155;28;20029;-63
2021/06/15 07:40:22;;;;;;;27.58;14.88;;;;;;;;;;5049298;28;20025;-63
2021/06/15 07:42:48;;;;;;;24.27;16.17;;;;;;;;;;5034650;28;20448;-64
2021/06/15 07:45:14;;;;;;;23.92;14.38;;;;;;;;;;5049518;28;20029;-62
2021/06/15 07:47:40;;;;;;;23.70;14.73;;;;;;;;;;5034132;28;20026;-64
2021/06/15 07:50:06;;;;;;;25.05;15.48;;;;;;;;;;5033075;28;20525;-63
2021/06/15 07:52:34;;;;;;;25.33;15.38;;;;;;;;;;5034049;28;20036;-60
2021/06/15 07:55:00;;;;;;;22.40;14.27;;;;;;;;;;5034241;28;20132;-64
2021/06/15 07:57:26;;;;;;;25.83;14.70;;;;;;;;;;5034164;28;20268;-64
2021/06/15 07:59:52;;;;;;;24.65;15.70;;;;;;;;;;5034422;28;20021;-65
2021/06/15 08:02:18;;;;;;;24.75;15.85;;;;;;;;;;5033875;28;20028;-62
2021/06/15 08:04:44;;;;;;;26.38;15.40;;;;;;;;;;5033914;28;20025;-61
2021/06/15 08:07:11;;;;;;;23.42;15.13;;;;;;;;;;5032037;28;20026;-63
2021/06/15 08:09:37;;;;;;;23.95;15.18;;;;;;;;;;5033751;28;20032;-64
2021/06/15 08:12:03;;;;;;;24.50;16.58;;;;;;;;;;5034115;28;20029;-63
2021/06/15 08:14:29;;;;;;;25.35;15.90;;;;;;;;;;5032629;28;20029;-63
2021/06/15 08:16:55;;;;;;;20.70;12.93;;;;;;;;;;5034325;28;20022;-64
2021/06/15 08:19:21;;;;;;;24.02;15.43;;;;;;;;;;5034182;28;20064;-63
2021/06/15 08:21:47;;;;;;;23.98;15.18;;;;;;;;;;5034004;28;20076;-64
2021/06/15 08:24:15;;;;;;;20.70;14.15;;;;;;;;;;5032415;28;20048;-64
2021/06/15 08:26:42;;;;;;;23.48;13.82;;;;;;;;;;5033661;28;20056;-64
2021/06/15 08:29:08;;;;;;;26.20;15.65;;;;;;;;;;5032729;28;20044;-62
2021/06/15 08:31:34;;;;;;;27.95;15.73;;;;;;;;;;5033888;28;20096;-63
2021/06/15 08:34:00;;;;;;;26.23;15.98;;;;;;;;;;5033416;28;20025;-64
2021/06/15 08:36:26;;;;;;;22.98;14.85;;;;;;;;;;5032312;28;20025;-64
2021/06/15 08:38:52;;;;;;;23.27;14.20;;;;;;;;;;5033824;28;20026;-64
2021/06/15 08:41:18;;;;;;;23.15;15.00;;;;;;;;;;5033561;28;20021;-63
2021/06/15 08:43:45;;;;;;;26.40;15.60;;;;;;;;;;5033370;28;20029;-65
2021/06/15 08:46:15;;;;;;;22.30;14.13;;;;;;;;;;5031459;28;20029;-63
2021/06/15 08:48:41;;;;;;;23.48;14.00;;;;;;;;;;5033240;28;20032;-63
2021/06/15 08:51:07;;;;;;;20.13;14.15;;;;;;;;;;5031958;28;20029;-62
2021/06/15 08:53:37;;;;;;;23.85;13.77;;;;;;;;;;5032763;28;20053;-63
2021/06/15 08:56:22;;;;;;;20.27;13.45;;;;;;;;;;5032904;28;20044;-64
2021/06/15 08:59:21;;;;;;;20.30;12.68;;;;;;;;;;5032038;28;20080;-63
2021/06/15 09:01:51;;;;;;;20.10;12.60;;;;;;;;;;5010264;28;20049;-64
2021/06/15 09:04:17;;;;;;;19.02;12.20;;;;;;;;;;5032894;28;20053;-63
2021/06/15 09:06:43;;;;;;;18.45;12.35;;;;;;;;;;5032930;28;20032;-63
2021/06/15 09:09:09;;;;;;;20.35;12.93;;;;;;;;;;5032950;28;20426;-64
2021/06/15 09:11:52;;;;;;;21.08;13.13;;;;;;;;;;5032801;28;20088;-64
2021/06/15 09:14:19;;;;;;;19.98;12.77;;;;;;;;;;5032859;28;20029;-65
2021/06/15 09:16:48;;;;;;;19.95;12.35;;;;;;;;;;5032883;28;20174;-64
2021/06/15 09:19:22;;;;;;;19.35;12.13;;;;;;;;;;5032112;28;20029;-66
2021/06/15 09:21:49;;;;;;;19.17;12.45;;;;;;;;;;5032724;28;20053;-64
2021/06/15 09:24:15;;;;;;;19.90;12.65;;;;;;;;;;5032374;28;20034;-64
2021/06/15 09:26:54;;;;;;;20.15;12.80;;;;;;;;;;5030747;28;20399;-62
2021/06/15 09:29:20;;;;;;;20.33;13.57;;;;;;;;;;5032521;28;20032;-64
2021/06/15 09:31:54;;;;;;;22.75;14.52;;;;;;;;;;5032924;28;20033;-63
2021/06/15 09:34:20;;;;;;;20.65;13.45;;;;;;;;;;5032601;28;20029;-64
2021/06/15 09:36:46;;;;;;;21.55;13.07;;;;;;;;;;5031435;28;20083;-63
2021/06/15 09:39:12;;;;;;;19.88;13.90;;;;;;;;;;5032642;28;20400;-65
2021/06/15 09:41:40;;;;;;;22.92;15.48;;;;;;;;;;5030939;28;20021;-64
2021/06/15 09:44:26;;;;;;;21.50;14.82;;;;;;;;;;5032276;28;20048;-65
2021/06/15 09:46:52;;;;;;;23.95;13.77;;;;;;;;;;5030768;28;20044;-66
2021/06/15 09:49:37;;;;;;;30.23;14.38;;;;;;;;;;5032017;28;20473;-65
2021/06/15 09:52:10;;;;;;;24.17;13.73;;;;;;;;;;5031825;28;20072;-64
2021/06/15 09:54:39;;;;;;;25.10;14.07;;;;;;;;;;5030628;28;20029;-65
2021/06/15 09:57:05;;;;;;;20.77;13.32;;;;;;;;;;5032376;28;20557;-66
2021/06/15 09:59:31;;;;;;;22.90;13.80;;;;;;;;;;5031637;28;20025;-65
2021/06/15 10:01:57;;;;;;;23.13;15.05;;;;;;;;;;5030761;28;20039;-65
2021/06/15 10:04:24;;;;;;;20.30;14.00;;;;;;;;;;5031544;28;20072;-66
2021/06/15 10:06:55;;;;;;;21.73;13.55;;;;;;;;;;5030317;28;20493;-65
2021/06/15 10:09:24;;;;;;;20.77;12.98;;;;;;;;;;5031973;28;20128;-66
2021/06/15 10:11:51;;;;;;;21.70;13.98;;;;;;;;;;5031887;28;20116;-66
2021/06/15 10:14:17;;;;;;;21.85;13.52;;;;;;;;;;5031461;28;20034;-66
2021/06/15 10:16:43;;;;;;;24.23;13.60;;;;;;;;;;5031538;28;20036;-65
2021/06/15 10:19:10;;;;;;;21.00;14.25;;;;;;;;;;5030367;28;20083;-66
2021/06/15 10:21:36;;;;;;;23.80;14.13;;;;;;;;;;5031478;28;20026;-66
2021/06/15 10:24:04;;;;;;;21.92;13.43;;;;;;;;;;5030233;28;20022;-66
2021/06/15 10:26:31;;;;;;;18.20;13.48;;;;;;;;;;5031253;28;20052;-67
2021/06/15 10:28:57;;;;;;;21.45;13.18;;;;;;;;;;5031022;28;20025;-65
2021/06/15 10:31:28;;;;;;;18.70;11.63;;;;;;;;;;5031610;28;20079;-66
2021/06/15 10:33:54;;;;;;;21.30;13.10;;;;;;;;;;5031291;28;20033;-63
2021/06/15 10:36:36;;;;;;;20.40;12.88;;;;;;;;;;5031294;28;20397;-62
2021/06/15 10:39:02;;;;;;;17.02;12.80;;;;;;;;;;5031536;28;20026;-63
2021/06/15 10:41:28;;;;;;;18.48;12.40;;;;;;;;;;5031090;28;20032;-63
2021/06/15 10:43:55;;;;;;;19.20;12.85;;;;;;;;;;5031605;28;20033;-63
2021/06/15 10:46:21;;;;;;;18.70;13.45;;;;;;;;;;5049896;22;20067;-56
2021/06/15 10:48:54;;;;;;;19.95;13.20;;;;;;;;;;5049383;28;20041;-62
2021/06/15 10:51:20;;;;;;;19.77;13.18;;;;;;;;;;5033285;28;20487;-61
2021/06/15 10:53:49;;;;;;;19.15;14.07;;;;;;;;;;5051239;28;20112;-60
2021/06/15 10:56:19;;;;;;;19.02;13.52;;;;;;;;;;5052278;28;20540;-61
2021/06/15 10:58:48;;;;;;;18.55;13.70;;;;;;;;;;5053407;28;20028;-63
2021/06/15 11:01:21;;;;;;;19.95;14.40;;;;;;;;;;5071381;28;20368;-61
2021/06/15 11:03:49;;;;;;;20.50;14.65;;;;;;;;;;5052771;28;20028;-62
2021/06/15 11:06:15;;;;;;;;;;;21.20;99.90;;;;;;5071411;28;20032;-61
2021/06/15 11:08:41;;;;;;;21.00;14.45;;;24.50;94.20;;;;;;5053295;28;20251;-61
2021/06/15 11:11:16;;;;;;;20.58;14.68;;;25.00;92.70;;;;;;5053512;28;20506;-61
2021/06/15 11:13:45;;;;;;;19.77;15.38;;;25.20;91.90;;;;;;5071418;28;20021;-61
2021/06/15 11:16:32;;;;;;;18.20;14.10;;;26.00;92.60;;;;;;5053157;28;20021;-61
2021/06/15 11:19:20;;;;;;;18.70;13.10;;;26.40;91.30;;;;;;5053135;28;20016;-62
2021/06/15 11:22:05;;;;;;;18.45;13.05;;;27.00;83.30;;;;;;4679159;28;10000706;-62
2021/06/15 11:24:41;;;;;;;16.73;13.20;;;27.80;80.60;;;;;;5030551;28;20479;-62
2021/06/15 11:27:16;;;;;;;16.63;13.15;;;28.10;75.20;;;;;;5047797;28;20033;-62
2021/06/15 11:29:46;;;;;;;19.08;13.43;;;28.40;72.60;;;;;;5048656;28;20041;-62
2021/06/15 11:32:24;;;;;;;17.63;14.02;;;28.20;73.30;;;;;;5030681;28;20468;-61
2021/06/15 11:34:58;;;;;;;17.90;14.50;;;;;;;;;;5030223;28;20510;-61
2021/06/15 11:37:42;;;;;;;17.50;13.90;;;28.60;77.30;;;;;;5047948;28;20095;-61
2021/06/15 11:40:15;;;;;;;17.85;14.20;;;30.30;73.10;;;;;;5048062;28;20373;-63
2021/06/15 11:42:41;;;;;;;18.92;13.85;;;30.00;71.70;;;;;;5033163;28;20029;-62
2021/06/15 11:45:08;;;;;;;19.55;14.13;;;29.80;71.20;;;;;;5051604;28;20029;-63
2021/06/15 11:47:37;;;;;;;18.20;14.40;;;29.80;74.50;;;;;;5056692;28;20056;-61
2021/06/15 11:50:14;;;;;;;;;;;29.90;70.00;;;;;;5072361;28;20052;-60
2021/06/15 11:52:49;;;;;;;19.20;13.65;;;29.80;69.10;;;;;;5071681;28;19958;-62
2021/06/15 11:55:16;;;;;;;17.15;13.30;;;;;;;;;;5071322;28;20036;-61
2021/06/15 11:57:43;;;;;;;16.73;12.80;;;30.00;67.80;;;;;;5053490;28;20039;-61
2021/06/15 12:00:28;;;;;;;18.73;12.65;;;29.70;67.90;;;;;;5071768;28;20138;-62
2021/06/15 12:03:09;;;;;;;16.90;12.15;;;29.00;68.90;;;;;;5052926;28;20020;-62
2021/06/15 12:05:35;;;;;;;18.33;12.93;;;29.40;68.10;;;;;;5071366;28;20123;-62
2021/06/15 12:08:01;;;;;;;19.17;13.32;;;29.70;66.70;;;;;;5071129;28;20102;-62
2021/06/15 12:10:27;;;;;;;17.30;12.90;;;30.60;66.20;;;;;;5070886;28;20124;-61
2021/06/15 12:13:20;;;;;;;16.40;13.10;;;31.40;65.40;;;;;;5053249;28;20032;-62
2021/06/15 12:15:52;;;;;;;16.80;12.80;;;30.90;64.30;;;;;;5071141;28;20020;-61
2021/06/15 12:18:23;;;;;;;17.23;13.00;;;31.40;64.80;;;;;;5053717;28;20016;-61
2021/06/15 12:20:53;;;;;;;18.92;13.23;;;30.50;63.90;;;;;;5071336;28;20503;-61
2021/06/15 12:23:25;;;;;;;16.58;13.05;;;30.70;63.70;;;;;;5053130;28;20028;-63
2021/06/15 12:25:51;;;;;;;18.63;13.90;;;31.10;62.00;;;;;;5052210;28;20028;-62
2021/06/15 12:28:19;;;;;;;18.38;13.27;;;31.30;63.90;;;;;;5069587;28;20107;-61
2021/06/15 12:30:46;;;;;;;18.70;13.60;;;31.60;63.90;;;;;;5052088;28;20375;-63
2021/06/15 12:33:13;;;;;;;22.63;14.35;;;32.30;62.50;;;;;;5052732;28;20064;-62
2021/06/15 12:35:40;;;;;;;16.48;13.02;;;31.90;60.10;;;;;;5052769;28;20546;-62
2021/06/15 12:38:15;;;;;;;18.90;13.90;;;31.90;59.50;;;;;;5070910;28;20389;-62
2021/06/15 12:40:44;;;;;;;16.58;12.98;;;32.70;60.70;;;;;;5070813;28;20032;-62
2021/06/15 12:43:10;;;;;;;18.17;13.60;;;32.20;60.70;;;;;;5052475;28;20024;-62
2021/06/15 12:45:39;;;;;;;18.17;13.30;;;33.30;59.20;;;;;;5052561;28;20526;-62
2021/06/15 12:48:25;;;;;;;17.42;13.27;;;33.60;59.20;;;;;;5052247;28;20041;-63
2021/06/15 12:51:22;;;;;;;18.17;13.60;;;31.10;59.30;;;;;;5070707;28;20033;-65
2021/06/15 12:53:48;;;;;;;17.98;13.15;;;31.70;60.80;;;;;;5050280;28;20083;-62
2021/06/15 12:56:18;;;;;;;17.42;13.23;;;31.60;60.60;;;;;;5070267;28;20049;-63
2021/06/15 12:58:45;;;;;;;17.73;13.50;;;31.30;59.30;;;;;;5052306;28;20081;-62
2021/06/15 13:01:35;;;;;;;18.23;13.77;;;31.60;59.40;;;;;;5053335;28;20103;-62
2021/06/15 13:04:19;;;;;;;17.92;13.45;;;31.00;60.30;;;;;;5073030;28;20028;-62
2021/06/15 13:06:46;;;;;;;18.50;13.43;;;32.00;59.80;;;;;;5072927;28;20434;-62
2021/06/15 13:09:17;;;;;;;17.52;14.00;;;32.70;59.40;;;;;;5054849;28;20380;-60
2021/06/15 13:12:05;;;;;;;19.17;13.80;;;32.50;58.40;;;;;;4721500;28;9999974;-62
2021/06/15 13:14:36;;;;;;;18.17;13.73;;;33.40;61.40;;;;;;5052135;28;20103;-61
2021/06/15 13:17:13;;;;;;;20.88;13.30;;;34.50;58.70;;;;;;5069914;28;20377;-62
2021/06/15 13:19:49;;;;;;;17.83;13.93;;;32.50;58.70;;;;;;5069872;28;20052;-58
2021/06/15 13:22:20;;;;;;;17.38;13.73;;;32.00;58.60;;;;;;5069762;28;20028;-62
2021/06/15 13:24:48;;;;;;;16.23;13.45;;;33.00;60.20;;;;;;5069255;28;20028;-61
2021/06/15 13:27:29;;;;;;;21.08;13.88;;;34.40;57.90;;;;;;5052250;28;20417;-62
2021/06/15 13:29:59;;;;;;;16.73;13.15;;;34.30;55.80;;;;;;5053960;28;20049;-62
2021/06/15 13:32:26;;;;;;;19.55;14.05;;;33.40;57.40;;;;;;4703928;28;9999726;-63
2021/06/15 13:35:19;;;;;;;17.25;13.50;;;33.90;57.50;;;;;;5050948;28;20116;-63
2021/06/15 13:37:55;;;;;;;17.88;13.05;;;34.00;54.80;;;;;;5058131;28;20036;-62
2021/06/15 13:40:41;;;;;;;17.50;13.30;;;34.60;58.80;;;;;;5050969;28;20434;-62
2021/06/15 13:43:23;;;;;;;17.70;13.32;;;35.30;55.50;;;;;;5069584;28;20166;-62
2021/06/15 13:45:57;;;;;;;17.17;12.75;;;33.40;54.70;;;;;;5051450;28;20028;-63
2021/06/15 13:48:23;;;;;;;16.55;12.48;;;33.50;54.30;;;;;;5059647;28;20032;-57
2021/06/15 13:50:49;;;;;;;17.70;13.00;;;32.90;55.30;;;;;;5049417;28;20082;-62
2021/06/15 13:53:15;;;;;;;17.90;13.05;;;32.60;58.40;;;;;;5049750;28;20028;-62
2021/06/15 13:55:42;;;;;;;18.33;13.40;;;32.20;55.40;;;;;;5030995;28;20029;-62
2021/06/15 13:58:11;;;;;;;18.45;12.95;;;33.40;56.80;;;;;;5049291;28;20048;-63
2021/06/15 14:00:37;;;;;;;19.00;12.75;;;34.10;53.50;;;;;;5050319;28;20048;-62
2021/06/15 14:03:06;;;;;;;18.55;12.82;;;32.30;54.10;;;;;;5050379;28;20029;-62
2021/06/15 14:05:32;;;;;;;18.08;12.57;;;31.50;55.50;;;;;;5049957;28;20067;-62